• Join FlightAware (Why Join?)
  • Login
  • US Flag 
06:23PM EDT


 

Airport Tracker/Info


-or-


 

Live Flight TrackerFlight Track Log ✈ N45TP ✈ 13-May-2013 ✈ KOWB - KCRG

Flight Track Log - Related Links

Times and Time Zones

All times are in EDT time to prevent confusion due to time zone crossing. See the N45TP flight status page for this flight to view local times or setup timezone preferences in your user account.

Time Position Orientation Groundspeed Altitude Reporting Facility
EDT Latitude Longitude Course Direction KTS MPH feet Rate Location/Type
12:29PM 37.7233 -87.1872 184° South 281 323 8,800  Level Indianapolis Center
12:30PM 37.6528 -87.1239 145° Southeast 305 351 12,600 3,360 Climbing Indianapolis Center
12:31PM 37.5542 -87.0319 144° Southeast 368 423 15,700 2,880 Climbing Indianapolis Center
12:32PM 37.4747 -86.9572 143° Southeast 388 447 18,200 2,880 Climbing Memphis Center
12:33PM 37.3137 -86.8075 146° Southeast  Level Estimated
12:33PM 37.3828 -86.8697 143° Southeast 400 460 21,200  Level Memphis Center
12:34PM 37.2731 -86.7692 144° Southeast 414 476 24,100 2,160 Climbing Indianapolis Center
12:35PM 37.2050 -86.7006 141° Southeast 421 484 25,600 2,100 Climbing Memphis Center
12:36PM 37.1108 -86.6111 143° Southeast 429 494 28,000 2,340 Climbing Memphis Center
12:37PM 37.0100 -86.5200 144° Southeast 443 510 30,300 2,340 Climbing Memphis Center
12:38PM 36.9114 -86.4311 144° Southeast 443 510 32,700 2,400 Climbing Memphis Center
12:39PM 36.7939 -86.3411 148° Southeast 448 516 35,100 2,340 Climbing Memphis Center
12:40PM 36.6933 -86.2581 146° Southeast 448 516 37,400 1,920 Climbing Memphis Center
12:41PM 36.5906 -86.1781 148° Southeast 448 516 39,000 780 Climbing Memphis Center
12:42PM 36.4833 -86.0933 148° Southeast 448 516 39,000  Level Memphis Center
12:43PM 36.3700 -86.0064 148° Southeast 465 535 39,000  Level Memphis Center
12:44PM 36.2564 -85.9197 148° Southeast 478 550 39,000  Level Memphis Center
12:46PM 36.0236 -85.7433 148° Southeast 488 562 39,000  Level Atlanta Center
12:47PM 35.9100 -85.6564 148° Southeast 483 556 39,000  Level Atlanta Center
12:48PM 35.8006 -85.5725 148° Southeast 478 550 39,000  Level Atlanta Center
12:49PM 35.6889 -85.4858 148° Southeast 473 544 39,000  Level Atlanta Center
12:50PM 35.5753 -85.3997 148° Southeast 473 544 39,000  Level Atlanta Center
12:51PM 35.4633 -85.3136 148° Southeast 473 544 39,000  Level Atlanta Center
12:52PM 35.3494 -85.2306 149° Southeast 473 544 39,000  Level Atlanta Center
12:53PM 35.2375 -85.1450 148° Southeast 468 539 39,000  Level Atlanta Center
12:54PM 35.1214 -85.0594 149° Southeast 468 539 39,000  Level Atlanta Center
12:55PM 35.0094 -84.9769 149° Southeast 468 539 39,000  Level Atlanta Center
12:56PM 34.8975 -84.8922 148° Southeast 468 539 39,000  Level Atlanta Center
12:57PM 34.7811 -84.8075 149° Southeast 473 544 39,000  Level Atlanta Center
12:58PM 34.6647 -84.7233 149° Southeast 479 551 39,000  Level Atlanta Center
12:59PM 34.5547 -84.6392 148° Southeast 479 551 39,000  Level Atlanta Center
01:00PM 34.4278 -84.5450 149° Southeast 479 551 39,000  Level Atlanta Center
01:01PM 34.3111 -84.4589 149° Southeast 485 558 39,000  Level Atlanta Center
01:02PM 34.1967 -84.3728 148° Southeast 490 564 39,000  Level Atlanta Center
01:03PM 34.0861 -84.2997 151° Southeast 490 564 39,000  Level Atlanta Center
01:04PM 33.9569 -84.2017 148° Southeast 502 578 39,000  Level Atlanta Center
01:05PM 33.8486 -84.1239 149° Southeast 507 583 39,000  Level Atlanta Center
01:06PM 33.7253 -84.0339 149° Southeast 513 590 39,000 -420 Level Atlanta Center
01:07PM 33.6042 -83.9492 150° Southeast 513 590 38,200 -960 Descending Atlanta Center
01:08PM 33.4894 -83.8669 149° Southeast 503 579 37,100 -1,140 Descending Atlanta Center
01:09PM 33.3722 -83.7850 150° Southeast 497 572 36,000 -1,140 Descending Atlanta Center
01:10PM 33.2469 -83.6961 149° Southeast 486 559 34,900 -1,140 Descending Atlanta Center
01:11PM 33.1361 -83.6172 149° Southeast 476 548 33,800 -1,200 Descending Atlanta Center
01:12PM 33.0250 -83.5408 150° Southeast 463 533 32,600 -1,140 Descending Atlanta Center
01:13PM 32.9078 -83.4575 149° Southeast 472 543 31,600 -840 Descending Atlanta Center
01:14PM 32.7947 -83.3792 150° Southeast 472 543 31,000 -300 Descending Atlanta Center
01:15PM 32.6836 -83.3008 149° Southeast 467 537 31,000  Level Atlanta Center
01:16PM 32.5706 -83.2231 150° Southeast 467 537 31,000  Level Atlanta Center
01:18PM 32.3500 -83.0697 150° Southeast 449 517 31,000 -180 Level Jacksonville Center
01:19PM 32.2375 -82.9908 149° Southeast 460 529 30,500 -1,260 Descending Jacksonville Center
01:20PM 32.1247 -82.9097 149° Southeast 465 535 28,500 -2,280 Descending Jacksonville Center
01:21PM 32.0142 -82.8289 148° Southeast 465 535 26,000 -1,260 Descending Jacksonville Center
01:22PM 31.9075 -82.7581 151° Southeast 458 527 26,000  Level Jacksonville Center
01:23PM 31.7969 -82.6897 152° Southeast 452 520 26,000 -180 Level Jacksonville Center
01:24PM 31.6861 -82.6167 151° Southeast 452 520 25,700 -1,260 Descending Jacksonville Center
01:25PM 31.5794 -82.5414 149° Southeast 452 520 23,500 -2,220 Descending Jacksonville Center
01:26PM 31.4728 -82.4783 153° Southeast 446 513 21,300 -1,500 Descending Jacksonville Center
01:27PM 31.3597 -82.4522 169° South 413 475 20,500 -1,680 Descending Jacksonville Center
01:28PM 31.2533 -82.4308 170° South 405 466 18,000 -2,400 Descending Jacksonville Center
01:29PM 31.1611 -82.3608 147° Southeast 383 441 15,800 -2,340 Descending Jacksonville Center
01:29PM 31.1339 -82.3392 146° Southeast 392 451 14,900 -2,400 Descending Jacksonville Center
01:30PM 31.0689 -82.2958 150° Southeast 383 441 13,400 -1,740 Descending Jacksonville Center
01:31PM 30.9811 -82.2333 149° Southeast 377 434 12,000 -780 Descending Jacksonville Center
01:32PM 30.9181 -82.1614 136° Southeast 386 444 12,000 -180 Level Jacksonville Center
01:33PM 30.8525 -82.0600 127° Southeast 387 445 11,700 -480 Descending Jacksonville Center
01:34PM 30.7767 -81.9544 130° Southeast 372 428 11,100 -600 Descending Jacksonville Center
01:35PM 30.7156 -81.8633 128° Southeast 377 434 10,500 -780 Descending Jacksonville Center
01:36PM 30.6500 -81.7650 128° Southeast 372 428 9,600 -1,380 Descending Jacksonville Center
01:37PM 30.5947 -81.6836 128° Southeast 345 397 7,700 -1,920 Descending Jacksonville Center
01:38PM 30.5481 -81.6094 126° Southeast 314 361 5,800 -1,980 Descending Jacksonville Center
01:39PM 30.4931 -81.5403 133° Southeast 294 338 3,800 -1,800 Descending Jacksonville Center
01:40PM 30.4239 -81.4978 152° Southeast 245 282 2,100 -1,140 Descending Jacksonville Center
01:41PM 30.3733 -81.4697 154° Southeast 200 230 1,600 -600 Descending Jacksonville Center
01:42PM 30.3317 -81.4606 169° South 139 160 1,000 -600 Descending Jacksonville Center
01:43PM 30.3214 -81.4969 252° West 116 133 400 -360 Descending Jacksonville Center
01:44PM 30.3342 -81.5086 322° Northwest 113 130 300 -120 Descending Jacksonville Center